LKPD

Pardubice Airport

Pardubice, Czech Republic
METAR LKPD 270700Z VRB02KT CAVOK 22/12 Q1021 NOSIG RMK BLU BLU
Observed Flight Rules
May-27 @ 07:00 UTC (an hour ago) Visual Flight Rules
Wind Visibility Clouds
Variable at 2 knots 10,000+ meters
  • Clear skies
Temperatures Readings
Current 22°C / 72°F
Dewpoint 12°C / 54°F
Humidity 53%
Altimeter 30.15" Hg
Pressure 1021 hPa
Elevation 226
METAR LKPD 270700Z VRB02KT CAVOK 22/12 Q1021 NOSIG RMK BLU BLU
Observed Flight Rules
May-27 @ 07:00 UTC
(an hour ago)
VFR
Wind Visibility
Variable at 2 knots 10,000+ meters
Clouds
  • Clear skies
Temperature Dewpoint
22°C / 72°F 12°C / 54°F
Humidity Altimeter Pressure
53% 30.15" Hg 1021 hPa